sensor_id;sensor_type;location;lat;lon;timestamp;P1;durP1;ratioP1;P2;durP2;ratioP2
70075;SDS011;63241;51.056;3.698;2022-11-12T00:00:46;31.48;;;21.82;;
70075;SDS011;63241;51.056;3.698;2022-11-12T00:03:16;31.37;;;21.15;;
70075;SDS011;63241;51.056;3.698;2022-11-12T00:06:04;29.07;;;21.40;;
70075;SDS011;63241;51.056;3.698;2022-11-12T00:08:53;29.05;;;20.00;;
70075;SDS011;63241;51.056;3.698;2022-11-12T00:11:41;31.00;;;21.60;;
70075;SDS011;63241;51.056;3.698;2022-11-12T00:14:29;32.45;;;20.25;;
70075;SDS011;63241;51.056;3.698;2022-11-12T00:17:18;26.10;;;20.75;;
70075;SDS011;63241;51.056;3.698;2022-11-12T00:20:06;31.68;;;21.10;;
70075;SDS011;63241;51.056;3.698;2022-11-12T00:22:56;30.55;;;20.05;;
70075;SDS011;63241;51.056;3.698;2022-11-12T00:25:23;31.02;;;20.55;;
70075;SDS011;63241;51.056;3.698;2022-11-12T00:28:10;32.75;;;21.12;;
70075;SDS011;63241;51.056;3.698;2022-11-12T00:31:05;27.87;;;20.35;;
70075;SDS011;63241;51.056;3.698;2022-11-12T00:33:50;33.98;;;21.82;;
70075;SDS011;63241;51.056;3.698;2022-11-12T00:36:38;32.53;;;20.15;;
70075;SDS011;63241;51.056;3.698;2022-11-12T00:39:27;27.17;;;19.55;;
70075;SDS011;63241;51.056;3.698;2022-11-12T00:42:15;32.05;;;20.37;;
70075;SDS011;63241;51.056;3.698;2022-11-12T00:45:03;29.12;;;19.85;;
70075;SDS011;63241;51.056;3.698;2022-11-12T00:47:31;33.90;;;20.90;;
70075;SDS011;63241;51.056;3.698;2022-11-12T00:50:21;33.65;;;21.27;;
70075;SDS011;63241;51.056;3.698;2022-11-12T00:53:10;31.57;;;21.55;;
70075;SDS011;63241;51.056;3.698;2022-11-12T00:55:59;32.08;;;20.95;;
70075;SDS011;63241;51.056;3.698;2022-11-12T01:04:53;38.25;;;22.35;;
70075;SDS011;63241;51.056;3.698;2022-11-12T01:07:40;33.58;;;21.57;;
70075;SDS011;63241;51.056;3.698;2022-11-12T01:10:27;31.75;;;21.17;;
70075;SDS011;63241;51.056;3.698;2022-11-12T01:13:15;28.70;;;20.45;;
70075;SDS011;63241;51.056;3.698;2022-11-12T01:16:06;32.58;;;21.62;;
70075;SDS011;63241;51.056;3.698;2022-11-12T01:19:00;34.45;;;21.90;;
70075;SDS011;63241;51.056;3.698;2022-11-12T01:21:50;34.98;;;23.73;;
70075;SDS011;63241;51.056;3.698;2022-11-12T01:24:37;38.67;;;24.87;;
70075;SDS011;63241;51.056;3.698;2022-11-12T01:27:26;43.05;;;26.87;;
70075;SDS011;63241;51.056;3.698;2022-11-12T01:30:14;41.65;;;25.50;;
70075;SDS011;63241;51.056;3.698;2022-11-12T01:33:03;43.30;;;26.75;;
70075;SDS011;63241;51.056;3.698;2022-11-12T01:35:50;45.55;;;27.13;;
70075;SDS011;63241;51.056;3.698;2022-11-12T01:38:39;40.60;;;26.50;;
70075;SDS011;63241;51.056;3.698;2022-11-12T01:41:29;38.85;;;24.92;;
70075;SDS011;63241;51.056;3.698;2022-11-12T01:44:37;34.35;;;23.47;;
70075;SDS011;63241;51.056;3.698;2022-11-12T01:47:26;38.17;;;24.18;;
70075;SDS011;63241;51.056;3.698;2022-11-12T01:50:27;33.53;;;23.45;;
70075;SDS011;63241;51.056;3.698;2022-11-12T01:53:18;34.58;;;23.22;;
70075;SDS011;63241;51.056;3.698;2022-11-12T01:56:08;36.38;;;22.87;;
70075;SDS011;63241;51.056;3.698;2022-11-12T01:58:59;39.05;;;25.08;;
70075;SDS011;63241;51.056;3.698;2022-11-12T02:02:00;36.30;;;23.10;;
70075;SDS011;63241;51.056;3.698;2022-11-12T02:04:48;39.38;;;23.32;;
70075;SDS011;63241;51.056;3.698;2022-11-12T02:07:38;36.42;;;23.80;;
70075;SDS011;63241;51.056;3.698;2022-11-12T02:10:29;36.45;;;23.95;;
70075;SDS011;63241;51.056;3.698;2022-11-12T02:13:17;38.67;;;24.40;;
70075;SDS011;63241;51.056;3.698;2022-11-12T02:16:39;37.20;;;24.72;;
70075;SDS011;63241;51.056;3.698;2022-11-12T02:19:29;36.63;;;23.05;;
70075;SDS011;63241;51.056;3.698;2022-11-12T02:22:17;41.65;;;24.80;;
70075;SDS011;63241;51.056;3.698;2022-11-12T02:25:04;41.92;;;25.37;;
70075;SDS011;63241;51.056;3.698;2022-11-12T02:27:53;44.83;;;25.82;;
70075;SDS011;63241;51.056;3.698;2022-11-12T02:30:43;38.55;;;24.57;;
70075;SDS011;63241;51.056;3.698;2022-11-12T02:33:33;42.13;;;24.90;;
70075;SDS011;63241;51.056;3.698;2022-11-12T02:36:01;40.67;;;24.30;;
70075;SDS011;63241;51.056;3.698;2022-11-12T02:38:48;40.73;;;25.50;;
70075;SDS011;63241;51.056;3.698;2022-11-12T02:41:36;44.65;;;25.82;;
70075;SDS011;63241;51.056;3.698;2022-11-12T02:44:24;40.80;;;26.35;;
70075;SDS011;63241;51.056;3.698;2022-11-12T02:47:12;45.55;;;26.12;;
70075;SDS011;63241;51.056;3.698;2022-11-12T02:50:01;48.15;;;27.35;;
70075;SDS011;63241;51.056;3.698;2022-11-12T02:52:49;47.25;;;29.23;;
70075;SDS011;63241;51.056;3.698;2022-11-12T02:55:17;56.95;;;32.40;;
70075;SDS011;63241;51.056;3.698;2022-11-12T02:58:05;55.83;;;30.62;;
70075;SDS011;63241;51.056;3.698;2022-11-12T03:00:54;48.92;;;28.10;;
70075;SDS011;63241;51.056;3.698;2022-11-12T03:03:50;39.42;;;25.48;;
70075;SDS011;63241;51.056;3.698;2022-11-12T03:06:38;33.18;;;23.70;;
70075;SDS011;63241;51.056;3.698;2022-11-12T03:09:26;33.18;;;22.17;;
70075;SDS011;63241;51.056;3.698;2022-11-12T03:12:13;28.98;;;21.65;;
70075;SDS011;63241;51.056;3.698;2022-11-12T03:15:01;30.97;;;21.07;;
70075;SDS011;63241;51.056;3.698;2022-11-12T03:17:49;32.25;;;22.22;;
70075;SDS011;63241;51.056;3.698;2022-11-12T03:20:37;30.77;;;22.07;;
70075;SDS011;63241;51.056;3.698;2022-11-12T03:23:06;29.35;;;20.12;;
70075;SDS011;63241;51.056;3.698;2022-11-12T03:25:56;28.95;;;19.85;;
70075;SDS011;63241;51.056;3.698;2022-11-12T03:28:44;28.27;;;21.07;;
70075;SDS011;63241;51.056;3.698;2022-11-12T03:31:31;28.90;;;20.25;;
70075;SDS011;63241;51.056;3.698;2022-11-12T03:34:18;33.13;;;21.23;;
70075;SDS011;63241;51.056;3.698;2022-11-12T03:37:06;30.10;;;20.85;;
70075;SDS011;63241;51.056;3.698;2022-11-12T03:39:53;24.60;;;18.85;;
70075;SDS011;63241;51.056;3.698;2022-11-12T03:42:45;28.38;;;20.40;;
70075;SDS011;63241;51.056;3.698;2022-11-12T03:45:36;26.90;;;19.48;;
70075;SDS011;63241;51.056;3.698;2022-11-12T03:48:24;24.45;;;17.42;;
70075;SDS011;63241;51.056;3.698;2022-11-12T03:51:12;23.05;;;17.77;;
70075;SDS011;63241;51.056;3.698;2022-11-12T03:54:00;25.17;;;18.57;;
70075;SDS011;63241;51.056;3.698;2022-11-12T03:56:47;24.75;;;18.48;;
70075;SDS011;63241;51.056;3.698;2022-11-12T03:59:35;25.40;;;16.85;;
70075;SDS011;63241;51.056;3.698;2022-11-12T04:02:23;27.73;;;18.40;;
70075;SDS011;63241;51.056;3.698;2022-11-12T04:05:11;24.52;;;17.30;;
70075;SDS011;63241;51.056;3.698;2022-11-12T04:08:17;24.12;;;17.42;;
70075;SDS011;63241;51.056;3.698;2022-11-12T04:11:21;25.35;;;17.55;;
70075;SDS011;63241;51.056;3.698;2022-11-12T04:14:09;24.82;;;17.27;;
70075;SDS011;63241;51.056;3.698;2022-11-12T04:16:57;23.40;;;17.90;;
70075;SDS011;63241;51.056;3.698;2022-11-12T04:20:01;21.70;;;17.20;;
70075;SDS011;63241;51.056;3.698;2022-11-12T04:22:50;22.90;;;16.23;;
70075;SDS011;63241;51.056;3.698;2022-11-12T04:25:38;22.45;;;16.77;;
70075;SDS011;63241;51.056;3.698;2022-11-12T04:28:42;23.00;;;16.87;;
70075;SDS011;63241;51.056;3.698;2022-11-12T04:31:30;23.52;;;16.80;;
70075;SDS011;63241;51.056;3.698;2022-11-12T04:34:17;24.50;;;17.32;;
70075;SDS011;63241;51.056;3.698;2022-11-12T04:37:13;21.68;;;15.68;;
70075;SDS011;63241;51.056;3.698;2022-11-12T04:40:01;23.52;;;16.25;;
70075;SDS011;63241;51.056;3.698;2022-11-12T04:43:01;24.87;;;18.05;;
70075;SDS011;63241;51.056;3.698;2022-11-12T04:46:08;18.98;;;14.15;;
70075;SDS011;63241;51.056;3.698;2022-11-12T04:48:56;21.20;;;15.68;;
70075;SDS011;63241;51.056;3.698;2022-11-12T04:51:44;21.05;;;15.68;;
70075;SDS011;63241;51.056;3.698;2022-11-12T04:54:50;21.50;;;16.23;;
70075;SDS011;63241;51.056;3.698;2022-11-12T04:57:38;23.00;;;14.90;;
70075;SDS011;63241;51.056;3.698;2022-11-12T05:00:26;19.77;;;13.98;;
70075;SDS011;63241;51.056;3.698;2022-11-12T05:03:14;21.05;;;15.53;;
70075;SDS011;63241;51.056;3.698;2022-11-12T05:06:03;21.17;;;15.40;;
70075;SDS011;63241;51.056;3.698;2022-11-12T05:09:09;18.80;;;14.13;;
70075;SDS011;63241;51.056;3.698;2022-11-12T05:12:16;21.33;;;15.20;;
70075;SDS011;63241;51.056;3.698;2022-11-12T05:15:04;20.48;;;15.95;;
70075;SDS011;63241;51.056;3.698;2022-11-12T05:17:54;20.92;;;15.70;;
70075;SDS011;63241;51.056;3.698;2022-11-12T05:20:43;20.35;;;16.05;;
70075;SDS011;63241;51.056;3.698;2022-11-12T05:23:31;23.35;;;15.90;;
70075;SDS011;63241;51.056;3.698;2022-11-12T05:26:19;22.75;;;16.90;;
70075;SDS011;63241;51.056;3.698;2022-11-12T05:29:09;22.45;;;16.35;;
70075;SDS011;63241;51.056;3.698;2022-11-12T05:31:58;22.62;;;17.20;;
70075;SDS011;63241;51.056;3.698;2022-11-12T05:34:45;20.95;;;15.98;;
70075;SDS011;63241;51.056;3.698;2022-11-12T05:37:33;21.48;;;16.12;;
70075;SDS011;63241;51.056;3.698;2022-11-12T05:40:21;21.65;;;15.68;;
70075;SDS011;63241;51.056;3.698;2022-11-12T05:43:08;21.93;;;15.90;;
70075;SDS011;63241;51.056;3.698;2022-11-12T05:45:56;22.62;;;16.20;;
70075;SDS011;63241;51.056;3.698;2022-11-12T05:48:44;22.15;;;15.72;;
70075;SDS011;63241;51.056;3.698;2022-11-12T05:51:12;22.93;;;16.17;;
70075;SDS011;63241;51.056;3.698;2022-11-12T05:53:59;22.05;;;15.98;;
70075;SDS011;63241;51.056;3.698;2022-11-12T05:56:50;20.08;;;16.05;;
70075;SDS011;63241;51.056;3.698;2022-11-12T05:59:39;22.95;;;16.35;;
70075;SDS011;63241;51.056;3.698;2022-11-12T06:02:27;23.30;;;15.63;;
70075;SDS011;63241;51.056;3.698;2022-11-12T06:05:15;23.00;;;15.85;;
70075;SDS011;63241;51.056;3.698;2022-11-12T06:08:03;22.30;;;14.75;;
70075;SDS011;63241;51.056;3.698;2022-11-12T06:10:52;21.95;;;14.63;;
70075;SDS011;63241;51.056;3.698;2022-11-12T06:13:40;22.75;;;15.68;;
70075;SDS011;63241;51.056;3.698;2022-11-12T06:16:30;22.15;;;15.35;;
70075;SDS011;63241;51.056;3.698;2022-11-12T06:19:18;23.02;;;15.68;;
70075;SDS011;63241;51.056;3.698;2022-11-12T06:22:06;21.45;;;16.90;;
70075;SDS011;63241;51.056;3.698;2022-11-12T06:24:54;20.77;;;15.93;;
70075;SDS011;63241;51.056;3.698;2022-11-12T06:27:42;21.87;;;16.40;;
70075;SDS011;63241;51.056;3.698;2022-11-12T06:30:30;22.42;;;16.10;;
70075;SDS011;63241;51.056;3.698;2022-11-12T06:33:18;25.62;;;16.05;;
70075;SDS011;63241;51.056;3.698;2022-11-12T06:36:06;27.17;;;16.30;;
70075;SDS011;63241;51.056;3.698;2022-11-12T06:38:56;22.82;;;16.05;;
70075;SDS011;63241;51.056;3.698;2022-11-12T06:41:23;26.60;;;17.52;;
70075;SDS011;63241;51.056;3.698;2022-11-12T06:44:11;27.32;;;17.15;;
70075;SDS011;63241;51.056;3.698;2022-11-12T06:47:00;22.40;;;16.45;;
70075;SDS011;63241;51.056;3.698;2022-11-12T06:49:54;24.63;;;15.58;;
70075;SDS011;63241;51.056;3.698;2022-11-12T06:52:41;23.40;;;16.20;;
70075;SDS011;63241;51.056;3.698;2022-11-12T06:55:28;22.62;;;15.10;;
70075;SDS011;63241;51.056;3.698;2022-11-12T06:58:16;22.98;;;16.15;;
70075;SDS011;63241;51.056;3.698;2022-11-12T07:04:44;21.27;;;15.10;;
70075;SDS011;63241;51.056;3.698;2022-11-12T07:07:32;22.93;;;14.93;;
70075;SDS011;63241;51.056;3.698;2022-11-12T07:10:20;19.90;;;15.85;;
70075;SDS011;63241;51.056;3.698;2022-11-12T07:13:08;18.73;;;14.73;;
70075;SDS011;63241;51.056;3.698;2022-11-12T07:15:56;18.07;;;13.62;;
70075;SDS011;63241;51.056;3.698;2022-11-12T07:18:26;18.98;;;14.15;;
70075;SDS011;63241;51.056;3.698;2022-11-12T07:21:16;20.12;;;15.08;;
70075;SDS011;63241;51.056;3.698;2022-11-12T07:24:05;19.40;;;14.70;;
70075;SDS011;63241;51.056;3.698;2022-11-12T07:26:52;19.73;;;13.75;;
70075;SDS011;63241;51.056;3.698;2022-11-12T07:29:40;18.48;;;14.07;;
70075;SDS011;63241;51.056;3.698;2022-11-12T07:32:30;24.65;;;16.85;;
70075;SDS011;63241;51.056;3.698;2022-11-12T07:35:19;21.95;;;15.05;;
70075;SDS011;63241;51.056;3.698;2022-11-12T07:38:07;19.15;;;15.55;;
70075;SDS011;63241;51.056;3.698;2022-11-12T07:40:34;18.95;;;14.28;;
70075;SDS011;63241;51.056;3.698;2022-11-12T07:43:23;22.85;;;14.40;;
70075;SDS011;63241;51.056;3.698;2022-11-12T07:46:12;17.70;;;12.95;;
70075;SDS011;63241;51.056;3.698;2022-11-12T07:49:02;15.78;;;12.07;;
70075;SDS011;63241;51.056;3.698;2022-11-12T07:51:50;16.15;;;12.20;;
70075;SDS011;63241;51.056;3.698;2022-11-12T07:54:39;17.25;;;12.23;;
70075;SDS011;63241;51.056;3.698;2022-11-12T07:57:27;15.38;;;11.50;;
70075;SDS011;63241;51.056;3.698;2022-11-12T08:00:14;13.25;;;11.35;;
70075;SDS011;63241;51.056;3.698;2022-11-12T08:03:02;19.20;;;12.80;;
70075;SDS011;63241;51.056;3.698;2022-11-12T08:05:28;16.30;;;11.95;;
70075;SDS011;63241;51.056;3.698;2022-11-12T08:08:19;16.00;;;12.63;;
70075;SDS011;63241;51.056;3.698;2022-11-12T08:11:05;17.17;;;12.05;;
70075;SDS011;63241;51.056;3.698;2022-11-12T08:13:54;17.90;;;12.35;;
70075;SDS011;63241;51.056;3.698;2022-11-12T08:16:42;16.32;;;11.97;;
70075;SDS011;63241;51.056;3.698;2022-11-12T08:19:31;18.45;;;11.95;;
70075;SDS011;63241;51.056;3.698;2022-11-12T08:22:20;14.75;;;11.38;;
70075;SDS011;63241;51.056;3.698;2022-11-12T08:25:08;13.80;;;10.03;;
70075;SDS011;63241;51.056;3.698;2022-11-12T08:28:05;15.20;;;11.18;;
70075;SDS011;63241;51.056;3.698;2022-11-12T08:30:25;15.25;;;11.53;;
70075;SDS011;63241;51.056;3.698;2022-11-12T08:33:14;17.15;;;11.80;;
70075;SDS011;63241;51.056;3.698;2022-11-12T08:36:03;15.78;;;10.88;;
70075;SDS011;63241;51.056;3.698;2022-11-12T08:38:52;14.18;;;11.10;;
70075;SDS011;63241;51.056;3.698;2022-11-12T08:41:40;14.25;;;10.00;;
70075;SDS011;63241;51.056;3.698;2022-11-12T08:44:29;13.20;;;9.83;;
70075;SDS011;63241;51.056;3.698;2022-11-12T08:47:17;11.73;;;9.25;;
70075;SDS011;63241;51.056;3.698;2022-11-12T08:49:45;11.57;;;9.48;;
70075;SDS011;63241;51.056;3.698;2022-11-12T08:52:33;13.50;;;9.15;;
70075;SDS011;63241;51.056;3.698;2022-11-12T08:55:21;12.55;;;10.35;;
70075;SDS011;63241;51.056;3.698;2022-11-12T08:58:09;11.93;;;9.03;;
70075;SDS011;63241;51.056;3.698;2022-11-12T09:01:02;15.75;;;9.88;;
70075;SDS011;63241;51.056;3.698;2022-11-12T09:03:51;13.45;;;9.63;;
70075;SDS011;63241;51.056;3.698;2022-11-12T09:06:21;13.68;;;9.08;;
70075;SDS011;63241;51.056;3.698;2022-11-12T09:09:09;9.78;;;8.10;;
70075;SDS011;63241;51.056;3.698;2022-11-12T09:11:58;11.38;;;8.05;;
70075;SDS011;63241;51.056;3.698;2022-11-12T09:14:46;12.65;;;8.33;;
70075;SDS011;63241;51.056;3.698;2022-11-12T09:17:33;11.00;;;7.78;;
70075;SDS011;63241;51.056;3.698;2022-11-12T09:20:22;7.90;;;6.72;;
70075;SDS011;63241;51.056;3.698;2022-11-12T09:23:11;8.13;;;6.25;;
70075;SDS011;63241;51.056;3.698;2022-11-12T09:26:03;8.70;;;6.40;;
70075;SDS011;63241;51.056;3.698;2022-11-12T09:29:09;7.95;;;6.65;;
70075;SDS011;63241;51.056;3.698;2022-11-12T09:31:57;9.05;;;6.67;;
70075;SDS011;63241;51.056;3.698;2022-11-12T09:34:45;7.85;;;6.08;;
70075;SDS011;63241;51.056;3.698;2022-11-12T09:37:31;8.43;;;6.80;;
70075;SDS011;63241;51.056;3.698;2022-11-12T09:40:20;8.20;;;5.83;;
70075;SDS011;63241;51.056;3.698;2022-11-12T09:43:17;7.17;;;6.12;;
70075;SDS011;63241;51.056;3.698;2022-11-12T09:52:26;7.55;;;6.20;;
70075;SDS011;63241;51.056;3.698;2022-11-12T09:55:08;7.17;;;6.15;;
70075;SDS011;63241;51.056;3.698;2022-11-12T09:57:57;6.83;;;6.08;;
70075;SDS011;63241;51.056;3.698;2022-11-12T10:00:52;6.80;;;5.70;;
70075;SDS011;63241;51.056;3.698;2022-11-12T10:03:58;6.50;;;5.87;;
70075;SDS011;63241;51.056;3.698;2022-11-12T10:06:50;7.65;;;6.17;;
70075;SDS011;63241;51.056;3.698;2022-11-12T10:19:44;7.83;;;6.20;;
70075;SDS011;63241;51.056;3.698;2022-11-12T10:25:33;7.10;;;6.35;;
70075;SDS011;63241;51.056;3.698;2022-11-12T10:28:32;7.17;;;6.47;;
70075;SDS011;63241;51.056;3.698;2022-11-12T10:31:22;7.10;;;5.70;;
70075;SDS011;63241;51.056;3.698;2022-11-12T10:34:13;5.72;;;5.12;;
70075;SDS011;63241;51.056;3.698;2022-11-12T10:37:15;7.17;;;5.75;;
70075;SDS011;63241;51.056;3.698;2022-11-12T10:42:59;6.42;;;5.55;;
70075;SDS011;63241;51.056;3.698;2022-11-12T10:45:51;6.95;;;6.10;;
70075;SDS011;63241;51.056;3.698;2022-11-12T10:48:41;6.65;;;5.95;;
70075;SDS011;63241;51.056;3.698;2022-11-12T10:51:56;8.75;;;6.33;;
70075;SDS011;63241;51.056;3.698;2022-11-12T10:54:43;6.62;;;5.80;;
70075;SDS011;63241;51.056;3.698;2022-11-12T10:57:31;8.15;;;6.47;;
70075;SDS011;63241;51.056;3.698;2022-11-12T11:00:19;7.35;;;5.97;;
70075;SDS011;63241;51.056;3.698;2022-11-12T11:03:18;7.62;;;5.65;;
70075;SDS011;63241;51.056;3.698;2022-11-12T11:09:16;6.85;;;5.72;;
70075;SDS011;63241;51.056;3.698;2022-11-12T11:12:09;9.53;;;5.80;;
70075;SDS011;63241;51.056;3.698;2022-11-12T11:17:58;6.53;;;5.55;;
70075;SDS011;63241;51.056;3.698;2022-11-12T11:20:46;7.50;;;5.90;;
70075;SDS011;63241;51.056;3.698;2022-11-12T11:23:49;7.10;;;5.92;;
70075;SDS011;63241;51.056;3.698;2022-11-12T11:30:00;8.90;;;5.70;;
70075;SDS011;63241;51.056;3.698;2022-11-12T11:41:43;6.87;;;5.62;;
70075;SDS011;63241;51.056;3.698;2022-11-12T11:44:55;8.55;;;5.60;;
70075;SDS011;63241;51.056;3.698;2022-11-12T12:01:07;8.30;;;5.80;;
70075;SDS011;63241;51.056;3.698;2022-11-12T12:04:19;6.97;;;6.17;;
70075;SDS011;63241;51.056;3.698;2022-11-12T12:07:24;6.35;;;5.70;;
70075;SDS011;63241;51.056;3.698;2022-11-12T12:19:40;6.90;;;5.97;;
70075;SDS011;63241;51.056;3.698;2022-11-12T12:22:36;8.38;;;5.70;;
70075;SDS011;63241;51.056;3.698;2022-11-12T12:25:31;6.58;;;5.62;;
70075;SDS011;63241;51.056;3.698;2022-11-12T12:28:33;9.38;;;6.55;;
70075;SDS011;63241;51.056;3.698;2022-11-12T12:31:47;8.70;;;5.92;;
70075;SDS011;63241;51.056;3.698;2022-11-12T12:34:37;8.63;;;6.87;;
70075;SDS011;63241;51.056;3.698;2022-11-12T12:37:41;6.12;;;5.53;;
70075;SDS011;63241;51.056;3.698;2022-11-12T12:40:33;7.00;;;6.30;;
70075;SDS011;63241;51.056;3.698;2022-11-12T12:43:40;7.83;;;5.70;;
70075;SDS011;63241;51.056;3.698;2022-11-12T12:46:26;7.37;;;6.17;;
70075;SDS011;63241;51.056;3.698;2022-11-12T12:49:18;6.62;;;5.92;;
70075;SDS011;63241;51.056;3.698;2022-11-12T12:52:10;7.40;;;5.90;;
70075;SDS011;63241;51.056;3.698;2022-11-12T12:54:58;8.60;;;6.95;;
70075;SDS011;63241;51.056;3.698;2022-11-12T12:57:45;10.05;;;6.28;;
70075;SDS011;63241;51.056;3.698;2022-11-12T13:07:07;9.33;;;5.95;;
70075;SDS011;63241;51.056;3.698;2022-11-12T13:10:32;6.80;;;6.10;;
70075;SDS011;63241;51.056;3.698;2022-11-12T13:13:02;7.42;;;5.78;;
70075;SDS011;63241;51.056;3.698;2022-11-12T13:15:52;6.25;;;5.65;;
70075;SDS011;63241;51.056;3.698;2022-11-12T13:19:00;6.35;;;5.75;;
70075;SDS011;63241;51.056;3.698;2022-11-12T13:28:04;7.12;;;5.85;;
70075;SDS011;63241;51.056;3.698;2022-11-12T13:30:55;6.70;;;5.55;;
70075;SDS011;63241;51.056;3.698;2022-11-12T13:33:47;7.42;;;6.30;;
70075;SDS011;63241;51.056;3.698;2022-11-12T13:36:36;5.50;;;4.92;;
70075;SDS011;63241;51.056;3.698;2022-11-12T13:39:26;6.83;;;5.60;;
70075;SDS011;63241;51.056;3.698;2022-11-12T13:42:16;6.78;;;5.37;;
70075;SDS011;63241;51.056;3.698;2022-11-12T13:45:23;7.35;;;5.67;;
70075;SDS011;63241;51.056;3.698;2022-11-12T13:47:50;7.10;;;6.12;;
70075;SDS011;63241;51.056;3.698;2022-11-12T13:50:38;7.28;;;6.08;;
70075;SDS011;63241;51.056;3.698;2022-11-12T13:53:30;8.30;;;6.80;;
70075;SDS011;63241;51.056;3.698;2022-11-12T13:56:28;8.18;;;6.55;;
70075;SDS011;63241;51.056;3.698;2022-11-12T13:59:27;7.42;;;6.10;;
70075;SDS011;63241;51.056;3.698;2022-11-12T14:02:20;7.28;;;6.58;;
70075;SDS011;63241;51.056;3.698;2022-11-12T14:05:18;8.38;;;6.70;;
70075;SDS011;63241;51.056;3.698;2022-11-12T14:08:18;7.80;;;6.65;;
70075;SDS011;63241;51.056;3.698;2022-11-12T14:20:44;9.10;;;7.60;;
70075;SDS011;63241;51.056;3.698;2022-11-12T14:23:32;9.20;;;7.70;;
70075;SDS011;63241;51.056;3.698;2022-11-12T14:26:01;8.73;;;7.33;;
70075;SDS011;63241;51.056;3.698;2022-11-12T14:28:54;10.48;;;7.87;;
70075;SDS011;63241;51.056;3.698;2022-11-12T14:31:39;8.68;;;7.78;;
70075;SDS011;63241;51.056;3.698;2022-11-12T14:34:31;8.90;;;7.40;;
70075;SDS011;63241;51.056;3.698;2022-11-12T14:37:34;10.58;;;8.28;;
70075;SDS011;63241;51.056;3.698;2022-11-12T14:40:24;9.10;;;7.67;;
70075;SDS011;63241;51.056;3.698;2022-11-12T14:52:31;9.88;;;8.03;;
70075;SDS011;63241;51.056;3.698;2022-11-12T14:55:24;12.70;;;8.68;;
70075;SDS011;63241;51.056;3.698;2022-11-12T14:57:51;9.50;;;8.15;;
70075;SDS011;63241;51.056;3.698;2022-11-12T15:00:41;12.25;;;9.08;;
70075;SDS011;63241;51.056;3.698;2022-11-12T15:03:32;10.30;;;9.25;;
70075;SDS011;63241;51.056;3.698;2022-11-12T15:06:27;10.60;;;8.45;;
70075;SDS011;63241;51.056;3.698;2022-11-12T15:09:16;11.33;;;9.20;;
70075;SDS011;63241;51.056;3.698;2022-11-12T15:12:08;11.03;;;8.83;;
70075;SDS011;63241;51.056;3.698;2022-11-12T15:15:05;10.35;;;8.55;;
70075;SDS011;63241;51.056;3.698;2022-11-12T15:17:56;12.65;;;10.00;;
70075;SDS011;63241;51.056;3.698;2022-11-12T15:20:58;10.98;;;9.48;;
70075;SDS011;63241;51.056;3.698;2022-11-12T15:23:57;12.10;;;9.18;;
70075;SDS011;63241;51.056;3.698;2022-11-12T15:38:21;12.95;;;9.25;;
70075;SDS011;63241;51.056;3.698;2022-11-12T15:41:20;11.80;;;10.18;;
70075;SDS011;63241;51.056;3.698;2022-11-12T15:44:09;17.98;;;12.88;;
70075;SDS011;63241;51.056;3.698;2022-11-12T15:46:58;11.65;;;10.40;;
70075;SDS011;63241;51.056;3.698;2022-11-12T15:49:26;14.87;;;11.22;;
70075;SDS011;63241;51.056;3.698;2022-11-12T15:52:14;13.28;;;11.18;;
70075;SDS011;63241;51.056;3.698;2022-11-12T15:55:02;14.60;;;12.10;;
70075;SDS011;63241;51.056;3.698;2022-11-12T15:57:51;17.75;;;13.38;;
70075;SDS011;63241;51.056;3.698;2022-11-12T16:00:39;18.65;;;14.85;;
70075;SDS011;63241;51.056;3.698;2022-11-12T16:03:28;23.35;;;17.50;;
70075;SDS011;63241;51.056;3.698;2022-11-12T16:06:34;25.77;;;18.50;;
70075;SDS011;63241;51.056;3.698;2022-11-12T16:09:22;31.45;;;21.33;;
70075;SDS011;63241;51.056;3.698;2022-11-12T16:12:11;34.53;;;23.95;;
70075;SDS011;63241;51.056;3.698;2022-11-12T16:14:59;31.90;;;22.80;;
70075;SDS011;63241;51.056;3.698;2022-11-12T16:17:46;30.25;;;23.98;;
70075;SDS011;63241;51.056;3.698;2022-11-12T16:20:35;28.32;;;21.87;;
70075;SDS011;63241;51.056;3.698;2022-11-12T16:23:23;30.80;;;21.75;;
70075;SDS011;63241;51.056;3.698;2022-11-12T16:26:11;32.93;;;23.95;;
70075;SDS011;63241;51.056;3.698;2022-11-12T16:29:04;30.90;;;23.13;;
70075;SDS011;63241;51.056;3.698;2022-11-12T16:31:52;32.33;;;23.35;;
70075;SDS011;63241;51.056;3.698;2022-11-12T16:34:19;35.65;;;23.50;;
70075;SDS011;63241;51.056;3.698;2022-11-12T16:37:09;32.98;;;23.85;;
70075;SDS011;63241;51.056;3.698;2022-11-12T16:39:57;35.03;;;24.82;;
70075;SDS011;63241;51.056;3.698;2022-11-12T16:42:46;36.58;;;24.52;;
70075;SDS011;63241;51.056;3.698;2022-11-12T16:45:34;35.88;;;23.07;;
70075;SDS011;63241;51.056;3.698;2022-11-12T16:48:27;39.92;;;25.75;;
70075;SDS011;63241;51.056;3.698;2022-11-12T16:51:15;48.92;;;28.52;;
70075;SDS011;63241;51.056;3.698;2022-11-12T16:54:05;41.68;;;26.97;;
70075;SDS011;63241;51.056;3.698;2022-11-12T17:00:01;40.95;;;28.83;;
70075;SDS011;63241;51.056;3.698;2022-11-12T17:02:51;44.88;;;30.25;;
70075;SDS011;63241;51.056;3.698;2022-11-12T17:05:38;45.25;;;29.12;;
70075;SDS011;63241;51.056;3.698;2022-11-12T17:08:26;41.20;;;27.82;;
70075;SDS011;63241;51.056;3.698;2022-11-12T17:11:14;42.25;;;30.52;;
70075;SDS011;63241;51.056;3.698;2022-11-12T17:14:03;49.98;;;29.65;;
70075;SDS011;63241;51.056;3.698;2022-11-12T17:16:52;45.90;;;30.35;;
70075;SDS011;63241;51.056;3.698;2022-11-12T17:19:58;47.73;;;33.15;;
70075;SDS011;63241;51.056;3.698;2022-11-12T17:22:48;49.15;;;32.78;;
70075;SDS011;63241;51.056;3.698;2022-11-12T17:25:35;54.55;;;32.73;;
70075;SDS011;63241;51.056;3.698;2022-11-12T17:28:22;46.42;;;30.55;;
70075;SDS011;63241;51.056;3.698;2022-11-12T17:31:15;50.70;;;33.60;;
70075;SDS011;63241;51.056;3.698;2022-11-12T17:34:04;49.15;;;31.68;;
70075;SDS011;63241;51.056;3.698;2022-11-12T17:36:52;56.35;;;35.20;;
70075;SDS011;63241;51.056;3.698;2022-11-12T17:39:40;53.95;;;34.03;;
70075;SDS011;63241;51.056;3.698;2022-11-12T17:42:09;61.25;;;37.48;;
70075;SDS011;63241;51.056;3.698;2022-11-12T17:44:56;61.92;;;37.30;;
70075;SDS011;63241;51.056;3.698;2022-11-12T17:50:34;67.53;;;35.90;;
70075;SDS011;63241;51.056;3.698;2022-11-12T17:53:23;57.15;;;34.80;;
70075;SDS011;63241;51.056;3.698;2022-11-12T17:59:03;66.55;;;37.95;;
70075;SDS011;63241;51.056;3.698;2022-11-12T18:01:51;64.77;;;38.73;;
70075;SDS011;63241;51.056;3.698;2022-11-12T18:04:40;63.20;;;39.53;;
70075;SDS011;63241;51.056;3.698;2022-11-12T18:07:31;87.42;;;48.28;;
70075;SDS011;63241;51.056;3.698;2022-11-12T18:10:19;77.78;;;44.95;;
70075;SDS011;63241;51.056;3.698;2022-11-12T18:13:09;92.75;;;51.37;;
70075;SDS011;63241;51.056;3.698;2022-11-12T18:15:57;89.17;;;51.88;;
70075;SDS011;63241;51.056;3.698;2022-11-12T18:18:45;84.90;;;49.48;;
70075;SDS011;63241;51.056;3.698;2022-11-12T18:21:35;76.28;;;46.60;;
70075;SDS011;63241;51.056;3.698;2022-11-12T18:24:23;78.00;;;45.63;;
70075;SDS011;63241;51.056;3.698;2022-11-12T18:27:12;72.10;;;42.90;;
70075;SDS011;63241;51.056;3.698;2022-11-12T18:29:59;80.65;;;43.73;;
70075;SDS011;63241;51.056;3.698;2022-11-12T18:32:48;62.60;;;38.92;;
70075;SDS011;63241;51.056;3.698;2022-11-12T18:35:36;64.25;;;37.95;;
70075;SDS011;63241;51.056;3.698;2022-11-12T18:38:24;59.67;;;36.08;;
70075;SDS011;63241;51.056;3.698;2022-11-12T18:41:13;64.15;;;36.95;;
70075;SDS011;63241;51.056;3.698;2022-11-12T18:43:41;63.13;;;38.02;;